createdAt,value
2023-01-19T00:01:31.811Z,0.05
2023-01-19T00:03:59.418Z,0.02
2023-01-19T00:06:29.096Z,0.02
2023-01-19T00:08:56.631Z,0.02
2023-01-19T00:11:24.179Z,0.06
2023-01-19T00:13:51.891Z,-0.01
2023-01-19T00:16:22.919Z,-0.01
2023-01-19T00:18:51.896Z,-0.02
2023-01-19T00:21:20.127Z,-0.04
2023-01-19T00:23:48.083Z,0.00
2023-01-19T00:26:16.416Z,-0.10
2023-01-19T00:28:44.619Z,-0.07
2023-01-19T00:31:12.242Z,-0.12
2023-01-19T00:33:39.686Z,-0.18
2023-01-19T00:36:07.230Z,-0.08
2023-01-19T00:38:34.617Z,-0.16
2023-01-19T00:41:01.693Z,-0.17
2023-01-19T00:43:29.019Z,-0.19
2023-01-19T00:45:56.108Z,-0.16
2023-01-19T00:48:23.778Z,-0.12
2023-01-19T00:50:50.877Z,-0.14
2023-01-19T00:53:18.342Z,-0.16
2023-01-19T00:55:45.308Z,-0.07
2023-01-19T00:58:12.709Z,-0.06
2023-01-19T01:00:39.863Z,-0.13
2023-01-19T01:03:07.495Z,-0.11
2023-01-19T01:05:34.771Z,-0.18
2023-01-19T01:08:02.148Z,-0.20
2023-01-19T01:10:29.699Z,-0.24
2023-01-19T01:12:58.783Z,-0.21
2023-01-19T01:15:27.667Z,-0.20
2023-01-19T01:17:55.953Z,-0.28
2023-01-19T01:20:27.143Z,-0.32
2023-01-19T01:22:55.363Z,-0.23
2023-01-19T01:25:25.053Z,-0.24
2023-01-19T01:27:52.480Z,-0.30
2023-01-19T01:30:20.812Z,-0.26
2023-01-19T01:32:49.050Z,-0.29
2023-01-19T01:35:16.971Z,-0.29
2023-01-19T01:37:44.539Z,-0.27
2023-01-19T01:40:13.631Z,-0.28
2023-01-19T01:42:42.408Z,-0.30
2023-01-19T01:45:32.718Z,-0.34
2023-01-19T01:48:18.878Z,-0.28
2023-01-19T01:51:16.857Z,-0.33
2023-01-19T01:53:47.344Z,-0.27
2023-01-19T01:56:19.844Z,-0.27
2023-01-19T01:58:47.979Z,-0.26
2023-01-19T02:01:34.310Z,-0.20
2023-01-19T02:04:01.480Z,-0.21
2023-01-19T02:06:29.484Z,-0.18
2023-01-19T02:09:24.787Z,-0.23
2023-01-19T02:12:11.304Z,-0.29
2023-01-19T02:14:38.359Z,-0.24
2023-01-19T02:17:06.967Z,-0.19
2023-01-19T02:19:41.967Z,-0.23
2023-01-19T02:22:35.996Z,-0.23
2023-01-19T02:25:07.198Z,-0.27
2023-01-19T02:27:36.973Z,-0.24
2023-01-19T02:30:04.726Z,-0.18
2023-01-19T02:32:32.007Z,-0.12
2023-01-19T02:34:59.150Z,-0.14
2023-01-19T02:37:30.176Z,-0.23
2023-01-19T02:40:01.825Z,-0.17
2023-01-19T02:42:39.048Z,-0.19
2023-01-19T02:45:09.519Z,-0.11
2023-01-19T02:47:43.085Z,-0.15
2023-01-19T02:50:46.470Z,-0.18
2023-01-19T02:53:16.416Z,-0.20
2023-01-19T02:55:51.567Z,-0.23
2023-01-19T02:58:30.091Z,-0.26
2023-01-19T03:01:19.784Z,-0.21
2023-01-19T03:04:01.891Z,-0.25
2023-01-19T03:07:01.260Z,-0.22
2023-01-19T03:10:07.695Z,-0.29
2023-01-19T03:12:48.545Z,-0.31
2023-01-19T03:15:23.388Z,-0.29
2023-01-19T03:17:53.148Z,-0.20
2023-01-19T03:20:25.385Z,-0.23
2023-01-19T03:23:00.558Z,-0.34
2023-01-19T03:25:33.257Z,-0.28
2023-01-19T03:28:01.897Z,-0.35
2023-01-19T03:30:34.884Z,-0.28
2023-01-19T03:33:27.960Z,-0.23
2023-01-19T03:36:03.673Z,-0.34
2023-01-19T03:38:35.574Z,-0.31
2023-01-19T03:41:09.229Z,-0.32
2023-01-19T03:43:38.272Z,-0.31
2023-01-19T03:46:07.543Z,-0.24
2023-01-19T03:48:34.730Z,-0.25
2023-01-19T03:51:08.328Z,-0.27
2023-01-19T03:53:35.379Z,-0.38
2023-01-19T03:56:03.645Z,-0.41
2023-01-19T03:58:30.696Z,-0.37
2023-01-19T04:00:58.306Z,-0.22
2023-01-19T04:03:25.369Z,-0.42
2023-01-19T04:05:52.751Z,-0.40
2023-01-19T04:08:19.763Z,-0.35
2023-01-19T04:10:47.129Z,-0.41
2023-01-19T04:13:14.196Z,-0.32
2023-01-19T04:15:41.646Z,-0.35
2023-01-19T04:18:08.640Z,-0.41
2023-01-19T04:20:36.044Z,-0.32
2023-01-19T04:23:03.465Z,-0.46
2023-01-19T04:25:31.258Z,-0.42
2023-01-19T04:27:58.467Z,-0.39
2023-01-19T04:30:27.467Z,-0.52
2023-01-19T04:32:55.547Z,-0.45
2023-01-19T04:35:23.682Z,-0.50
2023-01-19T04:37:50.830Z,-0.52
2023-01-19T04:40:18.232Z,-0.57
2023-01-19T04:42:46.109Z,-0.64
2023-01-19T04:45:14.374Z,-0.67
2023-01-19T04:47:42.680Z,-0.69
2023-01-19T04:50:11.426Z,-0.68
2023-01-19T04:52:38.667Z,-0.76
2023-01-19T04:55:06.848Z,-0.83
2023-01-19T04:57:34.218Z,-0.84
2023-01-19T05:00:01.902Z,-0.87
2023-01-19T05:02:29.221Z,-0.88
2023-01-19T05:04:56.603Z,-0.93
2023-01-19T05:07:23.644Z,-0.98
2023-01-19T05:09:51.274Z,-1.06
2023-01-19T05:12:18.480Z,-1.03
2023-01-19T05:14:46.167Z,-1.09
2023-01-19T05:17:13.652Z,-1.05
2023-01-19T05:19:41.260Z,-1.09
2023-01-19T05:22:08.658Z,-1.00
2023-01-19T05:24:36.119Z,-1.10
2023-01-19T05:27:03.829Z,-1.12
2023-01-19T05:29:31.189Z,-1.08
2023-01-19T05:31:58.540Z,-1.06
2023-01-19T05:34:25.812Z,-1.08
2023-01-19T05:36:53.308Z,-1.13
2023-01-19T05:39:20.763Z,-1.17
2023-01-19T05:41:48.077Z,-1.23
2023-01-19T05:44:15.714Z,-1.13
2023-01-19T05:46:42.977Z,-1.37
2023-01-19T05:49:12.877Z,-1.29
2023-01-19T05:51:45.206Z,-1.21
2023-01-19T05:54:15.381Z,-1.23
2023-01-19T05:56:42.560Z,-1.20
2023-01-19T05:59:10.050Z,-1.28
2023-01-19T06:01:39.868Z,-1.33
2023-01-19T06:04:07.622Z,-1.37
2023-01-19T06:06:34.592Z,-1.45
2023-01-19T06:09:01.974Z,-1.45
2023-01-19T06:11:29.079Z,-1.50
2023-01-19T06:13:56.441Z,-1.45
2023-01-19T06:16:23.530Z,-1.40
2023-01-19T06:18:50.906Z,-1.48
2023-01-19T06:21:18.001Z,-1.44
2023-01-19T06:23:45.372Z,-1.43
2023-01-19T06:26:13.549Z,-1.66
2023-01-19T06:28:40.933Z,-1.78
2023-01-19T06:31:08.006Z,-1.78
2023-01-19T06:33:35.489Z,-1.69
2023-01-19T06:36:02.581Z,-1.75
2023-01-19T06:38:29.971Z,-1.77
2023-01-19T06:41:03.294Z,-1.72
2023-01-19T06:43:31.517Z,-1.81
2023-01-19T06:46:00.570Z,-1.63
2023-01-19T06:48:28.030Z,-1.69
2023-01-19T06:50:58.465Z,-1.53
2023-01-19T06:53:28.001Z,-1.57
2023-01-19T06:56:02.464Z,-1.61
2023-01-19T06:58:31.780Z,-1.60
2023-01-19T07:01:03.769Z,-1.53
2023-01-19T07:03:32.278Z,-1.66
2023-01-19T07:06:02.385Z,-1.67
2023-01-19T07:08:30.269Z,-1.90
2023-01-19T07:11:25.599Z,-2.10
2023-01-19T07:13:55.593Z,-2.21
2023-01-19T07:16:23.716Z,-2.32
2023-01-19T07:18:51.084Z,-2.22
2023-01-19T07:21:19.275Z,-2.23
2023-01-19T07:23:51.179Z,-1.91
2023-01-19T07:26:21.724Z,-1.82
2023-01-19T07:28:49.485Z,-1.71
2023-01-19T07:31:17.906Z,-1.61
2023-01-19T07:33:45.860Z,-1.67
2023-01-19T07:36:13.637Z,-1.79
2023-01-19T07:38:41.004Z,-1.74
2023-01-19T07:41:10.172Z,-1.70
2023-01-19T07:43:37.751Z,-1.81
2023-01-19T07:46:06.408Z,-1.80
2023-01-19T07:48:34.168Z,-1.77
2023-01-19T07:51:11.723Z,-1.81
2023-01-19T07:53:41.499Z,-1.86
2023-01-19T07:56:10.176Z,-1.75
2023-01-19T07:58:38.352Z,-1.83
2023-01-19T08:01:10.391Z,-1.85
2023-01-19T08:03:38.582Z,-1.91
2023-01-19T08:06:06.733Z,-1.96
2023-01-19T08:08:34.721Z,-1.88
2023-01-19T08:11:01.792Z,-1.85
2023-01-19T08:13:29.204Z,-1.80
2023-01-19T08:15:56.318Z,-1.71
2023-01-19T08:18:23.793Z,-1.81
2023-01-19T08:20:51.084Z,-1.87
2023-01-19T08:23:18.658Z,-1.84
2023-01-19T08:25:46.071Z,-1.91
2023-01-19T08:28:16.062Z,-1.80
2023-01-19T08:30:44.951Z,-1.82
2023-01-19T08:33:13.788Z,-1.77
2023-01-19T08:35:42.605Z,-1.73
2023-01-19T08:38:10.856Z,-1.74
2023-01-19T08:40:40.284Z,-1.73
2023-01-19T08:43:10.605Z,-1.74
2023-01-19T08:45:46.565Z,-1.81
2023-01-19T08:48:15.017Z,-1.69
2023-01-19T08:50:42.031Z,-1.67
2023-01-19T08:53:10.344Z,-1.49
2023-01-19T08:55:37.647Z,-1.61
2023-01-19T08:58:06.212Z,-1.71
2023-01-19T09:00:34.446Z,-1.63
2023-01-19T09:03:04.136Z,-1.51
2023-01-19T09:05:35.677Z,-1.44
2023-01-19T09:08:13.813Z,-1.41
2023-01-19T09:10:46.546Z,-1.48
2023-01-19T09:13:15.290Z,-1.28
2023-01-19T09:15:43.557Z,-0.79
2023-01-19T09:18:14.131Z,-0.47
2023-01-19T09:20:42.899Z,-0.54
2023-01-19T09:23:12.343Z,-0.26
2023-01-19T09:25:40.499Z,-0.47
2023-01-19T09:28:09.724Z,-0.45
2023-01-19T09:30:38.633Z,-0.28
2023-01-19T09:33:08.163Z,-0.20
2023-01-19T09:35:35.318Z,0.30
2023-01-19T09:38:03.544Z,0.14
2023-01-19T09:40:31.849Z,-0.23
2023-01-19T09:43:17.027Z,-0.12
2023-01-19T09:45:56.985Z,-0.37
2023-01-19T09:48:47.922Z,-0.32
2023-01-19T09:51:36.309Z,-0.38
2023-01-19T09:54:15.811Z,-0.15
2023-01-19T09:56:44.648Z,0.14
2023-01-19T09:59:22.280Z,1.19
2023-01-19T10:02:00.881Z,0.86
2023-01-19T10:04:42.216Z,0.55
2023-01-19T10:07:12.655Z,0.55
2023-01-19T10:09:49.017Z,0.41
2023-01-19T10:12:31.417Z,0.75
2023-01-19T10:15:20.860Z,1.28
2023-01-19T10:17:58.087Z,1.13
2023-01-19T10:20:46.047Z,1.30
2023-01-19T10:23:39.470Z,1.55
2023-01-19T10:26:20.897Z,1.51
2023-01-19T10:28:51.340Z,1.15
2023-01-19T10:31:22.895Z,1.76
2023-01-19T10:33:50.909Z,1.56
2023-01-19T10:36:39.776Z,1.53
2023-01-19T10:39:07.967Z,1.58
2023-01-19T10:41:50.390Z,1.05
2023-01-19T10:44:25.290Z,1.10
2023-01-19T10:46:55.512Z,1.02
2023-01-19T10:49:27.820Z,1.19
2023-01-19T10:51:58.003Z,1.38
2023-01-19T10:54:26.637Z,2.11
2023-01-19T10:56:59.462Z,1.79
2023-01-19T10:59:36.017Z,2.06
2023-01-19T11:02:12.674Z,2.82
2023-01-19T11:04:42.183Z,2.01
2023-01-19T11:07:23.998Z,1.26
2023-01-19T11:10:11.251Z,1.43
2023-01-19T11:13:01.521Z,1.22
2023-01-19T11:15:43.171Z,1.50
2023-01-19T11:18:26.302Z,1.27
2023-01-19T11:20:56.597Z,2.23
2023-01-19T11:23:43.121Z,1.75
2023-01-19T11:26:16.925Z,1.82
2023-01-19T11:28:51.372Z,1.28
2023-01-19T11:31:31.278Z,1.43
2023-01-19T11:34:22.663Z,1.94
2023-01-19T11:37:05.393Z,2.00
2023-01-19T11:39:46.567Z,1.45
2023-01-19T11:42:15.468Z,1.69
2023-01-19T11:45:24.452Z,1.64
2023-01-19T11:47:54.688Z,1.36
2023-01-19T11:50:42.261Z,1.82
2023-01-19T11:53:29.276Z,2.23
2023-01-19T11:56:03.127Z,2.50
2023-01-19T11:58:33.379Z,2.59
2023-01-19T12:01:16.887Z,2.39
2023-01-19T12:03:46.542Z,2.93
2023-01-19T12:06:45.464Z,2.22
2023-01-19T12:09:23.102Z,2.41
2023-01-19T12:12:01.633Z,2.06
2023-01-19T12:15:01.520Z,1.85
2023-01-19T12:17:46.371Z,1.89
2023-01-19T12:20:32.862Z,1.51
2023-01-19T12:23:10.407Z,1.91
2023-01-19T12:25:53.939Z,2.17
2023-01-19T12:28:30.827Z,2.16
2023-01-19T12:31:01.198Z,2.11
2023-01-19T12:33:29.751Z,2.77
2023-01-19T12:36:04.049Z,1.92
2023-01-19T12:38:40.912Z,1.71
2023-01-19T12:41:25.697Z,1.87
2023-01-19T12:44:11.400Z,1.67
2023-01-19T12:46:43.482Z,1.94
2023-01-19T12:49:17.434Z,1.97
2023-01-19T12:51:45.932Z,1.82
2023-01-19T12:54:49.536Z,1.67
2023-01-19T12:57:25.146Z,1.45
2023-01-19T12:59:59.393Z,1.35
2023-01-19T13:02:26.967Z,1.25
2023-01-19T13:05:06.729Z,1.43
2023-01-19T13:08:01.803Z,1.25
2023-01-19T13:11:00.379Z,1.37
2023-01-19T13:13:36.827Z,1.06
2023-01-19T13:16:19.634Z,1.37
2023-01-19T13:19:13.428Z,1.32
2023-01-19T13:21:46.141Z,1.32
2023-01-19T13:24:20.868Z,1.19
2023-01-19T13:26:58.988Z,1.38
2023-01-19T13:29:33.845Z,1.34
2023-01-19T13:32:13.455Z,1.33
2023-01-19T13:34:44.123Z,1.45
2023-01-19T13:37:22.322Z,1.35
2023-01-19T13:39:53.403Z,1.28
2023-01-19T13:42:32.574Z,1.49
2023-01-19T13:45:17.117Z,1.36
2023-01-19T13:47:48.448Z,1.53
2023-01-19T13:50:19.854Z,1.53
2023-01-19T13:52:48.972Z,1.39
2023-01-19T13:55:16.355Z,1.37
2023-01-19T13:57:46.039Z,1.51
2023-01-19T14:00:14.460Z,1.50
2023-01-19T14:02:54.999Z,1.20
2023-01-19T14:05:25.732Z,1.02
2023-01-19T14:08:26.093Z,1.20
2023-01-19T14:11:05.255Z,1.27
2023-01-19T14:13:35.224Z,1.15
2023-01-19T14:16:12.551Z,1.11
2023-01-19T14:18:40.212Z,0.98
2023-01-19T14:21:13.237Z,1.21
2023-01-19T14:23:43.875Z,1.20
2023-01-19T14:26:39.266Z,0.95
2023-01-19T14:29:23.226Z,0.88
2023-01-19T14:31:53.309Z,1.09
2023-01-19T14:35:04.561Z,1.12
2023-01-19T14:37:35.097Z,0.94
2023-01-19T14:40:10.804Z,1.02
2023-01-19T14:43:00.039Z,0.93
2023-01-19T14:45:37.733Z,1.00
2023-01-19T14:48:19.704Z,0.81
2023-01-19T14:51:02.376Z,0.96
2023-01-19T14:53:36.823Z,0.69
2023-01-19T14:56:06.310Z,0.75
2023-01-19T14:58:35.349Z,0.74
2023-01-19T15:01:04.686Z,0.79
2023-01-19T15:03:44.354Z,0.79
2023-01-19T15:06:21.274Z,0.79
2023-01-19T15:08:50.228Z,0.63
2023-01-19T15:11:26.458Z,0.77
2023-01-19T15:13:55.421Z,0.70
2023-01-19T15:16:24.304Z,0.70
2023-01-19T15:18:51.682Z,0.70
2023-01-19T15:21:21.749Z,0.72
2023-01-19T15:23:49.382Z,0.75
2023-01-19T15:26:22.186Z,0.77
2023-01-19T15:28:50.083Z,0.79
2023-01-19T15:31:26.043Z,0.85
2023-01-19T15:33:53.758Z,0.85
2023-01-19T15:36:22.403Z,0.63
2023-01-19T15:38:51.160Z,0.74
2023-01-19T15:41:29.986Z,0.66
2023-01-19T15:43:58.557Z,0.67
2023-01-19T15:46:26.798Z,0.71
2023-01-19T15:48:54.407Z,0.68
2023-01-19T15:51:27.432Z,0.55
2023-01-19T15:53:55.795Z,0.56
2023-01-19T15:56:31.331Z,0.62
2023-01-19T15:58:58.975Z,0.55
2023-01-19T16:01:32.764Z,0.55
2023-01-19T16:04:02.186Z,0.50
2023-01-19T16:06:31.221Z,0.37
2023-01-19T16:09:01.332Z,0.43
2023-01-19T16:11:34.225Z,0.38
2023-01-19T16:14:01.682Z,0.50
2023-01-19T16:16:29.692Z,0.49
2023-01-19T16:18:57.432Z,0.58
2023-01-19T16:21:25.385Z,0.60
2023-01-19T16:23:52.987Z,0.54
2023-01-19T16:26:35.089Z,0.60
2023-01-19T16:29:11.494Z,0.64
2023-01-19T16:31:41.772Z,0.50
2023-01-19T16:34:09.608Z,0.46
2023-01-19T16:36:40.515Z,0.67
2023-01-19T16:39:13.521Z,0.60
2023-01-19T16:41:42.395Z,0.67
2023-01-19T16:44:12.055Z,0.65
2023-01-19T16:46:41.954Z,0.67
2023-01-19T16:49:19.573Z,0.62
2023-01-19T16:51:48.113Z,0.50
2023-01-19T16:54:18.341Z,0.50
2023-01-19T16:56:46.597Z,0.56
2023-01-19T16:59:16.432Z,0.61
2023-01-19T17:01:45.815Z,0.55
2023-01-19T17:04:14.079Z,0.70
2023-01-19T17:06:41.992Z,0.70
2023-01-19T17:09:10.154Z,0.69
2023-01-19T17:11:37.923Z,0.62
2023-01-19T17:14:17.291Z,0.68
2023-01-19T17:16:45.332Z,0.62
2023-01-19T17:19:19.176Z,0.66
2023-01-19T17:21:51.570Z,0.77
2023-01-19T17:24:19.175Z,0.74
2023-01-19T17:26:48.741Z,0.71
2023-01-19T17:29:16.821Z,0.72
2023-01-19T17:31:46.053Z,0.72
2023-01-19T17:34:13.742Z,0.72
2023-01-19T17:36:41.406Z,0.71
2023-01-19T17:39:11.562Z,0.75
2023-01-19T17:41:39.024Z,0.71
2023-01-19T17:44:07.188Z,0.71
2023-01-19T17:46:37.217Z,0.72
2023-01-19T17:49:07.009Z,0.68
2023-01-19T17:51:35.176Z,0.76
2023-01-19T17:54:02.366Z,0.67
2023-01-19T17:56:33.203Z,0.72
2023-01-19T17:59:00.627Z,0.52
2023-01-19T18:01:30.883Z,0.68
2023-01-19T18:03:58.867Z,0.76
2023-01-19T18:06:26.808Z,0.70
2023-01-19T18:08:54.202Z,0.84
2023-01-19T18:11:22.395Z,0.80
2023-01-19T18:13:50.737Z,0.82
2023-01-19T18:16:24.588Z,0.79
2023-01-19T18:18:56.132Z,0.71
2023-01-19T18:21:27.542Z,0.77
2023-01-19T18:24:01.206Z,0.81
2023-01-19T18:26:29.493Z,0.84
2023-01-19T18:28:57.355Z,0.82
2023-01-19T18:31:26.204Z,0.70
2023-01-19T18:33:53.707Z,0.66
2023-01-19T18:36:22.070Z,0.57
2023-01-19T18:38:50.123Z,0.59
2023-01-19T18:41:20.093Z,0.51
2023-01-19T18:43:48.357Z,0.63
2023-01-19T18:46:16.709Z,0.65
2023-01-19T18:48:44.484Z,0.69
2023-01-19T18:51:15.164Z,0.55
2023-01-19T18:53:43.934Z,0.63
2023-01-19T18:56:13.613Z,0.63
2023-01-19T18:58:41.624Z,0.68
2023-01-19T19:01:26.453Z,0.64
2023-01-19T19:04:18.908Z,0.73
2023-01-19T19:06:46.403Z,0.79
2023-01-19T19:09:19.458Z,0.79
2023-01-19T19:11:54.967Z,0.70
2023-01-19T19:14:25.877Z,0.75
2023-01-19T19:16:53.900Z,0.72
2023-01-19T19:19:21.202Z,0.71
2023-01-19T19:21:49.140Z,0.58
2023-01-19T19:24:16.674Z,0.69
2023-01-19T19:26:44.736Z,0.57
2023-01-19T19:29:12.398Z,0.71
2023-01-19T19:31:40.209Z,0.73
2023-01-19T19:34:09.434Z,0.69
2023-01-19T19:36:37.275Z,0.60
2023-01-19T19:39:05.389Z,0.71
2023-01-19T19:41:33.526Z,0.59
2023-01-19T19:44:01.009Z,0.61
2023-01-19T19:46:28.881Z,0.71
2023-01-19T19:48:56.456Z,0.73
2023-01-19T19:51:28.416Z,0.74
2023-01-19T19:53:59.103Z,0.79
2023-01-19T19:56:29.893Z,0.76
2023-01-19T19:59:00.119Z,0.76
2023-01-19T20:01:32.882Z,0.80
2023-01-19T20:04:09.732Z,0.79
2023-01-19T20:06:40.962Z,0.88
2023-01-19T20:09:10.911Z,0.79
2023-01-19T20:11:43.626Z,0.75
2023-01-19T20:14:16.515Z,0.68
2023-01-19T20:16:45.488Z,0.60
2023-01-19T20:19:14.772Z,0.77
2023-01-19T20:21:43.506Z,0.76
2023-01-19T20:24:18.018Z,0.64
2023-01-19T20:26:49.391Z,0.71
2023-01-19T20:29:17.872Z,0.64
2023-01-19T20:31:53.614Z,0.68
2023-01-19T20:34:25.690Z,0.64
2023-01-19T20:36:56.009Z,0.58
2023-01-19T20:39:25.034Z,0.73
2023-01-19T20:42:13.944Z,0.64
2023-01-19T20:44:43.143Z,0.72
2023-01-19T20:47:11.444Z,0.67
2023-01-19T20:49:38.995Z,0.61
2023-01-19T20:52:06.945Z,0.70
2023-01-19T20:54:34.694Z,0.67
2023-01-19T20:57:02.689Z,0.67
2023-01-19T20:59:30.195Z,0.49
2023-01-19T21:01:57.912Z,0.62
2023-01-19T21:04:25.178Z,0.69
2023-01-19T21:06:52.725Z,0.53
2023-01-19T21:09:20.137Z,0.41
2023-01-19T21:11:47.665Z,0.47
2023-01-19T21:14:14.891Z,0.46
2023-01-19T21:16:42.720Z,0.46
2023-01-19T21:19:10.541Z,0.31
2023-01-19T21:21:38.382Z,0.43
2023-01-19T21:24:05.784Z,0.42
2023-01-19T21:26:33.768Z,0.39
2023-01-19T21:29:02.662Z,0.51
2023-01-19T21:31:31.385Z,0.43
2023-01-19T21:33:59.089Z,0.41
2023-01-19T21:36:27.127Z,0.27
2023-01-19T21:39:00.384Z,0.15
2023-01-19T21:41:30.141Z,0.25
2023-01-19T21:43:58.731Z,0.18
2023-01-19T21:46:29.778Z,0.07
2023-01-19T21:48:58.618Z,0.02
2023-01-19T21:51:26.949Z,0.01
2023-01-19T21:53:59.740Z,-0.12
2023-01-19T21:56:28.826Z,0.00
2023-01-19T21:58:57.843Z,-0.01
2023-01-19T22:01:25.794Z,-0.06
2023-01-19T22:03:57.420Z,0.11
2023-01-19T22:06:27.574Z,0.05
2023-01-19T22:08:55.908Z,-0.09
2023-01-19T22:11:24.857Z,-0.06
2023-01-19T22:13:52.396Z,-0.09
2023-01-19T22:16:22.286Z,-0.05
2023-01-19T22:18:59.695Z,-0.16
2023-01-19T22:21:32.109Z,-0.20
2023-01-19T22:24:00.949Z,-0.12
2023-01-19T22:26:29.958Z,-0.02
2023-01-19T22:29:00.167Z,-0.06
2023-01-19T22:31:29.153Z,-0.17
2023-01-19T22:33:57.408Z,-0.15
2023-01-19T22:36:30.535Z,-0.19
2023-01-19T22:39:00.034Z,-0.13
2023-01-19T22:41:38.247Z,-0.67
2023-01-19T22:44:08.687Z,-0.72
2023-01-19T22:46:37.935Z,-0.62
2023-01-19T22:49:07.633Z,-0.83
2023-01-19T22:51:35.198Z,-1.01
2023-01-19T22:54:03.405Z,-1.11
2023-01-19T22:56:32.667Z,-1.09
2023-01-19T22:59:00.287Z,-1.12
2023-01-19T23:01:31.422Z,-1.08
2023-01-19T23:03:59.166Z,-1.13
2023-01-19T23:06:29.179Z,-1.13
2023-01-19T23:08:58.406Z,-1.20
2023-01-19T23:11:35.856Z,-1.18
2023-01-19T23:14:04.437Z,-1.23
2023-01-19T23:16:31.870Z,-1.24
2023-01-19T23:18:59.019Z,-1.25
2023-01-19T23:21:29.059Z,-1.21
2023-01-19T23:23:57.094Z,-1.29
2023-01-19T23:26:25.582Z,-1.34
2023-01-19T23:28:55.840Z,-1.27
2023-01-19T23:31:34.553Z,-1.26
2023-01-19T23:34:05.179Z,-1.40
2023-01-19T23:36:34.635Z,-1.32
2023-01-19T23:39:22.513Z,-1.39
2023-01-19T23:41:50.446Z,-1.37
2023-01-19T23:44:18.271Z,-1.43
2023-01-19T23:46:46.446Z,-1.38
2023-01-19T23:49:13.824Z,-1.49
2023-01-19T23:51:41.875Z,-1.53
2023-01-19T23:54:09.558Z,-1.47
2023-01-19T23:56:37.591Z,-1.42
2023-01-19T23:59:07.377Z,-1.48
